Time;durP1;ratioP1;P1;durP2;ratioP2;P2;SDS_P1;SDS_P2;PMS_P1;PMS_P2;Temp;Humidity;BMP_temperature;BMP_pressure;BME280_temperature;BME280_humidity;BME280_pressure;Samples;Min_cycle;Max_cycle;Signal;HPM_P1;HPM_P2
2022/05/22 00:02:10;;;;;;;10.20;3.20;;;;;;;;;;5051681;28;20960;-44
2022/05/22 00:04:39;;;;;;;6.07;2.00;;;;;;;;;;5056834;28;20214;-46
2022/05/22 00:07:06;;;;;;;7.07;3.17;;;;;;;;;;5044809;28;20218;-44
2022/05/22 00:09:34;;;;;;;6.67;2.73;;;;;;;;;;5046945;28;20210;-43
2022/05/22 00:12:01;;;;;;;8.00;2.43;;;;;;;;;;5037959;28;20199;-43
2022/05/22 00:14:28;;;;;;;6.63;2.87;;;;;;;;;;5055993;28;20233;-44
2022/05/22 00:16:55;;;;;;;10.13;2.93;;;;;;;;;;5057759;28;20271;-45
2022/05/22 00:19:23;;;;;;;6.60;2.40;;;;;;;;;;5056425;28;20758;-44
2022/05/22 00:21:52;;;;;;;7.87;3.10;;;;;;;;;;5039786;28;20219;-44
2022/05/22 00:24:24;;;;;;;11.47;2.80;;;;;;;;;;5055153;28;20872;-47
2022/05/22 00:26:51;;;;;;;9.07;3.63;;;;;;;;;;5044427;28;20230;-44
2022/05/22 00:29:18;;;;;;;10.40;3.47;;;;;;;;;;5056300;28;20199;-47
2022/05/22 00:31:47;;;;;;;8.33;2.37;;;;;;;;;;5055609;28;20182;-47
2022/05/22 00:34:14;;;;;;;8.90;2.67;;;;;;;;;;5055478;28;20204;-45
2022/05/22 00:36:42;;;;;;;7.17;3.07;;;;;;;;;;5052474;28;20699;-45
2022/05/22 00:39:10;;;;;;;8.23;2.80;;;;;;;;;;5046263;28;20191;-48
2022/05/22 00:41:38;;;;;;;7.53;2.67;;;;;;;;;;5038479;28;20210;-44
2022/05/22 00:44:06;;;;;;;9.03;2.40;;;;;;;;;;5054865;28;20213;-45
2022/05/22 00:46:34;;;;;;;5.03;2.20;;;;;;;;;;5052407;28;20223;-49
2022/05/22 00:49:03;;;;;;;10.30;3.27;;;;;;;;;;5051723;28;20193;-45
2022/05/22 00:51:34;;;;;;;7.90;2.43;;;;;;;;;;5045891;28;20646;-46
2022/05/22 00:54:03;;;;;;;7.43;3.27;;;;;;;;;;5043237;28;20206;-46
2022/05/22 00:56:38;;;;;;;9.40;3.00;;;11.80;99.90;;;;;;5047201;28;20217;-45
2022/05/22 00:59:11;;;;;;;5.93;2.70;;;11.70;99.90;;;;;;5058447;28;20195;-45
2022/05/22 01:01:38;;;;;;;7.07;2.63;;;11.70;99.90;;;;;;5055737;28;20213;-45
2022/05/22 01:04:08;;;;;;;11.83;3.47;;;11.60;99.90;;;;;;5054820;28;20489;-45
2022/05/22 01:06:38;;;;;;;8.30;3.43;;;11.60;99.90;;;;;;5051644;28;20252;-45
2022/05/22 01:09:13;;;;;;;7.77;2.67;;;11.60;99.90;;;;;;5053816;28;20206;-44
2022/05/22 01:11:42;;;;;;;5.20;2.40;;;11.60;99.90;;;;;;5064277;28;20195;-43
2022/05/22 01:14:13;;;;;;;4.47;3.03;;;11.60;99.90;;;;;;5047649;28;20203;-44
2022/05/22 01:16:40;;;;;;;12.03;3.10;;;11.60;99.90;;;;;;5048478;28;20221;-44
2022/05/22 01:19:12;;;;;;;7.20;3.40;;;11.60;99.90;;;;;;5047649;28;20194;-44
2022/05/22 01:21:39;;;;;;;12.37;3.33;;;11.60;99.90;;;;;;5046673;28;20211;-43
2022/05/22 01:24:08;;;;;;;10.17;3.30;;;11.50;99.90;;;;;;5040370;28;20227;-43
2022/05/22 01:26:36;;;;;;;11.00;3.73;;;11.50;99.90;;;;;;5060288;28;20222;-43
2022/05/22 01:29:11;;;;;;;7.10;3.37;;;11.50;99.90;;;;;;5034778;28;20209;-49
2022/05/22 01:31:38;;;;;;;9.00;3.20;;;11.40;99.90;;;;;;5055215;28;20191;-43
2022/05/22 01:34:05;;;;;;;9.80;3.23;;;11.50;99.90;;;;;;5053051;28;20203;-43
2022/05/22 01:36:33;;;;;;;10.43;3.70;;;11.50;99.90;;;;;;5049347;28;20604;-44
2022/05/22 01:39:00;;;;;;;9.43;3.90;;;11.50;99.90;;;;;;5049820;28;20186;-43
2022/05/22 01:41:38;;;;;;;8.03;3.33;;;11.50;99.90;;;;;;5047463;28;20229;-43
2022/05/22 01:44:06;;;;;;;9.87;3.27;;;11.50;99.90;;;;;;5052481;28;22871;-45
2022/05/22 01:46:33;;;;;;;12.30;3.90;;;11.50;99.90;;;;;;5039795;28;20215;-43
2022/05/22 01:49:07;;;;;;;8.00;3.30;;;11.50;99.90;;;;;;5046328;28;20207;-46
2022/05/22 01:51:36;;;;;;;4.97;3.20;;;11.50;99.90;;;;;;5042346;28;20235;-44
2022/05/22 01:54:03;;;;;;;11.90;3.67;;;11.50;99.90;;;;;;5042971;28;20286;-45
2022/05/22 01:56:32;;;;;;;12.60;4.03;;;11.50;99.90;;;;;;5062581;28;20228;-44
2022/05/22 01:59:01;;;;;;;12.43;3.33;;;11.50;99.90;;;;;;5038524;28;20302;-48
2022/05/22 02:01:34;;;;;;;7.20;3.30;;;11.50;99.90;;;;;;5039991;28;20217;-45
2022/05/22 02:04:06;;;;;;;7.97;3.20;;;11.50;99.90;;;;;;5044317;28;20190;-44
2022/05/22 02:08:18;;;;;;;9.03;3.23;;;11.50;99.90;;;;;;5051972;28;20222;-43
2022/05/22 02:09:28;;;;;;;7.83;3.80;;;11.50;99.90;;;;;;5051012;28;20278;-44
2022/05/22 02:11:55;;;;;;;8.93;3.57;;;11.50;99.90;;;;;;5051863;28;20183;-44
2022/05/22 02:14:24;;;;;;;8.27;3.57;;;11.50;99.90;;;;;;5047481;28;20276;-47
2022/05/22 02:17:00;;;;;;;10.80;3.87;;;11.50;99.90;;;;;;5032140;28;20233;-44
2022/05/22 02:19:26;;;;;;;6.23;3.27;;;11.50;99.90;;;;;;5051607;28;20202;-43
2022/05/22 02:21:54;;;;;;;7.07;4.13;;;11.50;99.90;;;;;;5039229;28;20830;-44
2022/05/22 02:24:21;;;;;;;10.17;3.60;;;11.50;99.90;;;;;;5051822;28;20284;-43
2022/05/22 02:27:06;;;;;;;11.50;3.03;;;11.60;99.90;;;;;;5039944;28;20217;-43
2022/05/22 02:29:34;;;;;;;12.03;3.37;;;11.60;99.90;;;;;;5052207;28;20551;-47
2022/05/22 02:32:01;;;;;;;11.13;4.07;;;11.50;99.90;;;;;;5040597;28;20203;-46
2022/05/22 02:34:28;;;;;;;12.50;3.60;;;11.50;99.90;;;;;;5048267;28;20214;-43
2022/05/22 02:36:55;;;;;;;5.00;3.43;;;11.40;99.90;;;;;;5053261;28;20213;-44
2022/05/22 02:39:22;;;;;;;7.07;3.47;;;11.40;99.90;;;;;;5052822;28;20665;-44
2022/05/22 02:41:49;;;;;;;8.37;4.10;;;11.40;99.90;;;;;;5055760;28;20214;-44
2022/05/22 02:44:16;;;;;;;7.57;3.53;;;11.40;99.90;;;;;;5052000;28;20287;-47
2022/05/22 02:46:45;;;;;;;10.67;3.77;;;11.40;99.90;;;;;;5051734;28;20236;-43
2022/05/22 02:49:12;;;;;;;16.07;4.53;;;11.40;99.90;;;;;;5036820;28;20214;-47
2022/05/22 02:51:40;;;;;;;6.20;3.20;;;11.40;99.90;;;;;;5053633;28;20197;-47
2022/05/22 02:54:07;;;;;;;11.53;3.20;;;11.40;99.90;;;;;;5053451;28;20193;-49
2022/05/22 02:56:53;;;;;;;5.17;3.43;;;11.30;99.90;;;;;;5057999;28;20230;-45
2022/05/22 02:59:42;;;;;;;9.43;3.27;;;11.30;99.90;;;;;;5048752;28;20583;-44
2022/05/22 03:02:21;;;;;;;8.07;3.33;;;11.30;99.90;;;;;;5053844;28;20222;-46
2022/05/22 03:04:51;;;;;;;8.07;3.70;;;11.30;99.90;;;;;;5046189;28;20218;-44
2022/05/22 03:07:20;;;;;;;8.87;3.37;;;11.30;99.90;;;;;;5050159;28;20219;-46
2022/05/22 03:09:48;;;;;;;8.27;3.00;;;11.30;99.90;;;;;;5045759;28;20207;-46
2022/05/22 03:12:18;;;;;;;7.67;3.70;;;11.30;99.90;;;;;;5052772;28;20195;-45
2022/05/22 03:14:50;;;;;;;6.77;3.40;;;11.30;99.90;;;;;;5055531;28;20202;-45
2022/05/22 03:17:17;;;;;;;11.97;3.53;;;11.20;99.90;;;;;;5046257;28;20231;-46
2022/05/22 03:19:51;;;;;;;9.03;3.33;;;11.30;99.90;;;;;;5032085;28;20199;-43
2022/05/22 03:22:19;;;;;;;8.17;3.07;;;11.20;99.90;;;;;;5052804;28;20668;-49
2022/05/22 03:24:46;;;;;;;5.97;3.60;;;11.20;99.90;;;;;;5044764;28;20310;-44
2022/05/22 03:27:15;;;;;;;12.13;3.83;;;11.30;99.90;;;;;;5054688;28;20243;-46
2022/05/22 03:29:44;;;;;;;8.70;4.20;;;11.30;99.90;;;;;;5049024;28;20268;-43
2022/05/22 03:32:11;;;;;;;8.50;3.60;;;11.20;99.90;;;;;;5060854;28;20264;-46
2022/05/22 03:34:40;;;;;;;15.37;4.53;;;11.20;99.90;;;;;;5049001;28;20210;-43
2022/05/22 03:37:09;;;;;;;9.27;4.03;;;11.20;99.90;;;;;;5038900;28;20211;-43
2022/05/22 03:39:36;;;;;;;13.50;3.30;;;11.20;99.90;;;;;;5052278;28;20222;-44
2022/05/22 03:42:05;;;;;;;10.83;3.50;;;11.20;99.90;;;;;;5046475;28;20222;-43
2022/05/22 03:44:35;;;;;;;7.67;4.57;;;11.20;99.90;;;;;;5050248;28;20203;-43
2022/05/22 03:47:02;;;;;;;5.97;3.57;;;11.20;99.90;;;;;;5038031;28;20310;-43
2022/05/22 03:49:37;;;;;;;11.47;3.60;;;11.20;99.90;;;;;;5050431;28;20279;-45
2022/05/22 03:52:05;;;;;;;12.60;4.80;;;11.20;99.90;;;;;;5040017;28;20218;-43
2022/05/22 03:54:33;;;;;;;8.77;3.23;;;11.30;99.90;;;;;;5060125;28;20336;-46
2022/05/22 03:57:01;;;;;;;8.40;3.63;;;11.20;99.90;;;;;;5049847;28;20214;-47
2022/05/22 03:59:37;;;;;;;6.77;3.13;;;11.20;99.90;;;;;;5051365;28;20195;-44
2022/05/22 04:02:05;;;;;;;8.90;3.70;;;11.30;99.90;;;;;;5044712;28;20509;-44
2022/05/22 04:04:32;;;;;;;5.60;4.17;;;11.30;99.90;;;;;;5052686;28;20207;-44
2022/05/22 04:07:04;;;;;;;8.33;3.57;;;11.30;99.90;;;;;;5042003;28;20253;-45
2022/05/22 04:09:32;;;;;;;8.80;3.57;;;11.30;99.90;;;;;;5043011;28;20211;-46
2022/05/22 04:12:09;;;;;;;11.57;4.45;;;11.30;99.90;;;;;;5056312;28;20446;-44
2022/05/22 04:14:38;;;;;;;8.50;4.00;;;11.40;99.90;;;;;;5045265;28;20446;-45
2022/05/22 04:17:08;;;;;;;8.43;3.70;;;11.60;99.90;;;;;;5058232;28;20492;-43
2022/05/22 04:19:36;;;;;;;9.43;4.50;;;11.60;99.90;;;;;;5046062;28;20474;-44
2022/05/22 04:22:04;;;;;;;8.93;3.90;;;11.80;99.90;;;;;;5047946;28;20223;-43
2022/05/22 04:27:18;;;;;;;11.95;4.50;;;11.60;99.90;;;;;;5056211;28;20441;-45
2022/05/22 04:29:45;;;;;;;8.57;3.50;;;11.90;99.90;;;;;;5050220;28;20203;-43
2022/05/22 04:32:12;;;;;;;11.40;3.60;;;11.80;99.90;;;;;;5049528;28;20219;-43
2022/05/22 04:34:46;;;;;;;7.70;3.30;;;11.70;99.90;;;;;;5053170;28;20195;-44
2022/05/22 04:37:14;;;;;;;11.97;3.50;;;11.70;99.90;;;;;;5042994;28;20227;-43
2022/05/22 04:39:45;;;;;;;8.10;3.50;;;11.70;99.90;;;;;;5040738;28;20280;-45
2022/05/22 04:42:13;;;;;;;7.93;3.67;;;11.70;99.90;;;;;;5048054;28;20203;-44
2022/05/22 04:44:43;;;;;;;7.13;3.23;;;11.70;99.90;;;;;;5046296;28;20207;-43
2022/05/22 04:47:30;;;;;;;9.03;2.77;;;11.70;99.90;;;;;;5043947;28;20258;-45
2022/05/22 04:50:16;;;;;;;8.37;3.37;;;11.80;99.90;;;;;;5043926;28;20245;-46
2022/05/22 04:53:02;;;;;;;8.13;3.27;;;11.90;99.90;;;;;;5043493;28;20340;-45
2022/05/22 04:55:34;;;;;;;11.17;3.57;;;11.90;99.90;;;;;;5041011;28;20725;-43
2022/05/22 04:58:10;;;;;;;11.53;3.37;;;11.90;99.90;;;;;;5051296;28;20219;-46
2022/05/22 05:00:39;;;;;;;10.53;3.47;;;11.90;99.90;;;;;;5050654;28;20534;-45
2022/05/22 05:03:10;;;;;;;9.23;3.10;;;11.90;99.90;;;;;;5063504;28;20973;-44
2022/05/22 05:05:37;;;;;;;4.73;3.07;;;11.90;99.90;;;;;;5050625;28;20207;-43
2022/05/22 05:08:05;;;;;;;8.43;3.40;;;12.00;99.90;;;;;;5039668;28;20306;-44
2022/05/22 05:10:45;;;;;;;9.20;3.53;;;12.00;99.90;;;;;;5044447;28;20212;-43
2022/05/22 05:13:26;;;;;;;7.10;3.40;;;12.10;99.90;;;;;;5045564;28;20225;-45
2022/05/22 05:16:03;;;;;;;11.07;3.20;;;12.10;99.90;;;;;;5053498;28;20199;-43
2022/05/22 05:18:35;;;;;;;10.73;3.50;;;12.00;99.90;;;;;;5047642;28;20221;-44
2022/05/22 05:21:05;;;;;;;14.30;3.40;;;12.10;99.90;;;;;;5047004;28;20203;-44
2022/05/22 05:23:32;;;;;;;15.60;3.50;;;12.10;99.90;;;;;;5047569;28;20248;-43
2022/05/22 05:26:08;;;;;;;7.93;3.10;;;12.20;99.90;;;;;;5049177;28;20262;-43
2022/05/22 05:28:35;;;;;;;7.90;3.80;;;12.20;99.90;;;;;;5045159;28;20217;-45
2022/05/22 05:31:04;;;;;;;11.13;3.17;;;12.30;99.90;;;;;;5048540;28;20202;-46
2022/05/22 05:33:32;;;;;;;9.40;3.20;;;12.30;99.90;;;;;;5042258;28;20186;-46
2022/05/22 05:36:14;;;;;;;10.63;4.00;;;12.40;99.90;;;;;;5046595;28;20683;-44
2022/05/22 05:38:59;;;;;;;10.90;3.13;;;12.40;99.90;;;;;;5044552;28;20234;-45
2022/05/22 05:41:47;;;;;;;7.23;3.43;;;12.40;99.90;;;;;;5037875;28;20213;-45
2022/05/22 05:44:16;;;;;;;14.70;3.67;;;12.50;99.90;;;;;;5054391;28;20222;-50
2022/05/22 05:47:11;;;;;;;10.23;3.10;;;12.50;99.90;;;;;;5034387;28;20223;-43
2022/05/22 05:49:49;;;;;;;12.13;3.07;;;12.50;99.90;;;;;;5042333;28;20226;-45
2022/05/22 05:52:26;;;;;;;8.87;3.20;;;12.50;99.90;;;;;;5047668;28;20206;-45
2022/05/22 05:54:57;;;;;;;7.63;3.37;;;12.60;99.90;;;;;;5061114;28;20199;-45
2022/05/22 05:57:33;;;;;;;9.13;3.03;;;12.70;99.90;;;;;;5041673;28;20225;-44
2022/05/22 06:00:01;;;;;;;9.20;3.43;;;12.70;99.90;;;;;;5048876;28;20603;-44
2022/05/22 06:02:32;;;;;;;10.67;2.80;;;12.80;99.90;;;;;;5050576;28;20210;-44
2022/05/22 06:05:00;;;;;;;9.30;2.70;;;12.80;99.90;;;;;;5043105;28;20203;-44
2022/05/22 06:07:27;;;;;;;3.67;2.53;;;12.80;99.90;;;;;;5053306;28;20211;-47
2022/05/22 06:09:54;;;;;;;10.17;3.40;;;12.90;99.90;;;;;;5058910;28;20199;-45
2022/05/22 06:12:37;;;;;;;10.93;3.77;;;12.90;99.90;;;;;;5031511;28;20198;-43
2022/05/22 06:15:08;;;;;;;6.37;2.87;;;12.90;99.90;;;;;;5054467;28;20195;-47
2022/05/22 06:17:39;;;;;;;8.37;3.37;;;13.00;99.90;;;;;;5043778;28;20357;-44
2022/05/22 06:20:11;;;;;;;7.53;3.33;;;13.00;99.90;;;;;;5052485;28;20199;-45
2022/05/22 06:22:44;;;;;;;5.53;2.57;;;13.00;99.90;;;;;;5043582;28;20928;-43
2022/05/22 06:25:31;;;;;;;9.73;2.93;;;13.10;99.90;;;;;;5046291;28;20198;-45
2022/05/22 06:28:18;;;;;;;7.83;2.83;;;13.20;99.90;;;;;;5040521;28;20716;-44
2022/05/22 06:30:54;;;;;;;12.67;2.97;;;13.30;99.90;;;;;;5048775;28;20193;-46
2022/05/22 06:33:35;;;;;;;8.13;3.03;;;13.30;99.90;;;;;;5057148;28;20186;-45
2022/05/22 06:36:21;;;;;;;6.07;2.83;;;13.20;99.90;;;;;;5043485;28;20207;-45
2022/05/22 06:42:15;;;;;;;7.93;3.00;;;13.30;99.90;;;;;;5046726;28;20289;-45
2022/05/22 06:44:57;;;;;;;7.80;2.50;;;13.40;99.90;;;;;;5045728;28;20210;-48
2022/05/22 06:47:50;;;;;;;5.97;2.80;;;13.40;99.90;;;;;;5052368;28;20215;-49
2022/05/22 06:50:47;;;;;;;7.70;3.00;;;13.40;99.90;;;;;;5043779;28;20199;-49
2022/05/22 06:53:34;;;;;;;7.10;2.93;;;13.30;99.90;;;;;;5040662;28;20289;-44
2022/05/22 06:56:19;;;;;;;5.47;2.30;;;13.40;99.90;;;;;;5041798;28;20341;-47
2022/05/22 06:59:21;;;;;;;8.27;2.70;;;13.50;99.90;;;;;;5040109;28;20211;-44
2022/05/22 07:02:15;;;;;;;7.60;2.57;;;13.50;99.90;;;;;;5050180;28;20204;-45
2022/05/22 07:05:01;;;;;;;5.30;2.27;;;13.50;99.90;;;;;;5058657;28;20303;-45
2022/05/22 07:07:45;;;;;;;7.27;3.10;;;13.60;99.90;;;;;;5047903;28;20891;-44
2022/05/22 07:13:42;;;;;;;11.07;2.43;;;13.70;99.90;;;;;;5039041;28;20193;-47
2022/05/22 07:16:30;;;;;;;9.83;2.43;;;13.80;99.90;;;;;;5038747;28;20689;-44
2022/05/22 07:19:18;;;;;;;7.70;2.70;;;14.00;99.90;;;;;;5047836;28;20203;-47
2022/05/22 07:21:58;;;;;;;9.90;2.93;;;14.10;99.90;;;;;;5047532;28;20307;-45
2022/05/22 07:24:50;;;;;;;8.00;2.73;;;14.00;99.90;;;;;;5051582;28;21057;-46
2022/05/22 07:27:36;;;;;;;9.83;2.70;;;13.80;99.90;;;;;;5053784;28;20289;-44
2022/05/22 07:30:15;;;;;;;8.17;2.23;;;13.70;99.90;;;;;;5040257;28;20211;-50
2022/05/22 07:32:56;;;;;;;7.30;2.20;;;13.80;99.90;;;;;;5055069;28;20194;-44
2022/05/22 07:35:38;;;;;;;6.83;2.23;;;14.00;99.90;;;;;;5044815;28;20210;-43
2022/05/22 07:38:25;;;;;;;3.70;2.70;;;14.10;99.90;;;;;;5042860;28;20280;-45
2022/05/22 07:41:09;;;;;;;8.07;1.77;;;14.20;99.90;;;;;;5048686;28;20210;-44
2022/05/22 07:43:38;;;;;;;9.27;2.00;;;14.30;99.90;;;;;;5046800;28;20223;-44
2022/05/22 07:46:37;;;;;;;4.97;1.80;;;14.40;99.90;;;;;;5019202;28;20222;-45
2022/05/22 07:52:18;;;;;;;4.63;1.97;;;14.30;99.90;;;;;;5053288;28;20203;-45
2022/05/22 07:55:05;;;;;;;5.30;1.50;;;14.20;99.90;;;;;;5058263;28;20210;-45
2022/05/22 07:57:52;;;;;;;4.10;1.47;;;14.20;99.90;;;;;;5059027;28;20268;-43
2022/05/22 08:00:36;;;;;;;4.63;1.60;;;14.30;99.90;;;;;;5050549;28;21601;-48
2022/05/22 08:03:08;;;;;;;6.30;1.30;;;14.30;99.90;;;;;;5049250;28;20297;-43
2022/05/22 08:05:35;;;;;;;4.63;1.80;;;14.30;99.90;;;;;;5052023;28;20233;-49
2022/05/22 08:08:06;;;;;;;9.07;2.10;;;14.30;99.90;;;;;;5051815;28;20297;-46
2022/05/22 08:10:49;;;;;;;5.87;1.93;;;14.30;99.90;;;;;;5045655;28;20974;-48
2022/05/22 08:13:24;;;;;;;4.37;2.10;;;14.30;99.90;;;;;;5046895;28;20675;-43
2022/05/22 08:15:51;;;;;;;5.00;1.73;;;14.30;99.90;;;;;;5040180;28;20655;-43
2022/05/22 08:18:28;;;;;;;6.33;1.73;;;14.40;99.90;;;;;;5039612;28;20373;-43
2022/05/22 08:20:55;;;;;;;3.07;1.60;;;14.60;99.90;;;;;;5056236;28;20302;-48
2022/05/22 08:23:24;;;;;;;5.00;1.80;;;14.70;99.90;;;;;;5049201;28;20192;-45
2022/05/22 08:26:03;;;;;;;6.93;1.87;;;14.80;99.90;;;;;;5048139;28;20341;-45
2022/05/22 08:28:34;;;;;;;4.73;1.87;;;14.80;99.90;;;;;;5043530;28;20299;-46
2022/05/22 08:31:01;;;;;;;9.03;2.47;;;14.60;99.90;;;;;;5052527;28;20194;-48
2022/05/22 08:33:30;;;;;;;6.77;1.70;;;14.60;99.90;;;;;;5036468;28;20689;-43
2022/05/22 08:35:59;;;;;;;7.93;2.23;;;14.50;99.90;;;;;;5051467;28;20200;-44
2022/05/22 08:38:25;;;;;;;4.17;1.30;;;14.40;99.90;;;;;;5048375;28;20218;-43
2022/05/22 08:40:59;;;;;;;3.17;1.30;;;14.60;99.90;;;;;;5051066;28;20207;-43
2022/05/22 08:43:34;;;;;;;6.77;2.10;;;14.70;99.90;;;;;;5041692;28;20211;-44
2022/05/22 08:46:07;;;;;;;6.33;1.80;;;14.90;99.90;;;;;;5047375;28;20249;-45
2022/05/22 08:48:41;;;;;;;4.83;1.53;;;15.10;99.90;;;;;;5030542;28;20940;-43
2022/05/22 08:51:17;;;;;;;4.80;1.60;;;15.20;99.90;;;;;;5052105;28;20187;-46
2022/05/22 08:53:49;;;;;;;4.77;1.20;;;15.40;99.90;;;;;;5046845;28;20186;-44
2022/05/22 08:59:09;;;;;;;3.87;1.00;;;15.40;99.90;;;;;;5050064;28;20196;-43
2022/05/22 09:01:47;;;;;;;1.97;1.03;;;15.40;99.90;;;;;;5044353;28;20199;-43
2022/05/22 09:04:36;;;;;;;3.63;0.80;;;15.40;99.90;;;;;;5047847;28;20220;-43
2022/05/22 09:07:20;;;;;;;5.00;1.17;;;15.40;99.90;;;;;;5051506;28;20233;-43
2022/05/22 09:09:52;;;;;;;3.70;1.17;;;15.50;99.90;;;;;;5053539;28;20190;-43
2022/05/22 09:12:47;;;;;;;3.70;1.07;;;15.60;99.90;;;;;;5054416;28;20218;-44
2022/05/22 09:15:20;;;;;;;4.37;1.20;;;15.70;99.90;;;;;;5055936;28;20206;-44
2022/05/22 09:17:56;;;;;;;4.63;1.10;;;15.70;99.90;;;;;;5049127;28;20400;-45
2022/05/22 09:20:34;;;;;;;5.33;1.13;;;15.70;99.90;;;;;;5040807;28;20579;-43
2022/05/22 09:23:12;;;;;;;5.50;1.20;;;15.60;99.90;;;;;;5055275;28;20194;-45
2022/05/22 09:25:49;;;;;;;2.47;0.80;;;15.50;99.90;;;;;;5051014;28;20214;-45
2022/05/22 09:28:26;;;;;;;4.33;1.17;;;15.60;99.90;;;;;;5050262;28;20306;-46
2022/05/22 09:31:04;;;;;;;4.57;1.03;;;15.60;99.90;;;;;;5052205;28;20225;-47
2022/05/22 09:33:39;;;;;;;1.43;0.87;;;15.80;99.90;;;;;;5043861;28;20889;-46
2022/05/22 09:36:17;;;;;;;5.93;0.93;;;16.00;99.90;;;;;;5042093;28;20213;-45
2022/05/22 09:38:56;;;;;;;4.20;1.00;;;16.00;99.90;;;;;;5049914;28;20411;-44
2022/05/22 09:41:32;;;;;;;4.37;1.27;;;16.00;99.90;;;;;;5057037;28;20194;-43
2022/05/22 09:44:31;;;;;;;2.20;0.83;;;15.90;99.90;;;;;;5041844;28;20302;-47
2022/05/22 09:47:23;;;;;;;1.53;0.70;;;15.80;99.90;;;;;;5035929;28;20285;-50
2022/05/22 09:50:07;;;;;;;3.10;1.00;;;15.90;99.90;;;;;;5049775;28;20199;-43
2022/05/22 09:52:46;;;;;;;3.37;0.80;;;16.00;99.90;;;;;;5031571;28;20904;-43
2022/05/22 09:55:23;;;;;;;3.10;0.90;;;16.10;99.90;;;;;;5057937;28;20194;-45
2022/05/22 09:58:08;;;;;;;5.40;0.87;;;16.20;99.90;;;;;;5051781;28;20214;-50
2022/05/22 10:00:39;;;;;;;2.67;0.80;;;16.20;99.90;;;;;;5046542;28;20973;-44
2022/05/22 10:03:13;;;;;;;2.60;0.80;;;16.40;99.90;;;;;;5053552;28;20195;-43
2022/05/22 10:05:50;;;;;;;3.33;0.70;;;16.50;99.90;;;;;;5041961;28;20215;-45
2022/05/22 10:08:24;;;;;;;1.63;0.70;;;16.50;99.90;;;;;;5047315;28;20230;-44
2022/05/22 10:10:58;;;;;;;2.67;1.27;;;16.60;99.90;;;;;;5048018;28;20202;-47
2022/05/22 10:13:32;;;;;;;2.40;0.70;;;16.80;99.90;;;;;;5046433;28;20195;-43
2022/05/22 10:16:15;;;;;;;5.53;0.80;;;16.80;99.90;;;;;;5044645;28;20191;-48
2022/05/22 10:19:01;;;;;;;4.80;0.83;;;16.90;99.90;;;;;;5041793;28;20192;-47
2022/05/22 10:21:37;;;;;;;3.93;1.10;;;17.00;99.90;;;;;;5030813;28;21021;-46
2022/05/22 10:24:17;;;;;;;2.37;0.70;;;16.90;99.90;;;;;;5042496;28;20217;-49
2022/05/22 10:26:58;;;;;;;2.27;0.83;;;16.80;99.90;;;;;;5050029;28;20633;-46
2022/05/22 10:29:30;;;;;;;4.87;0.83;;;16.80;99.90;;;;;;5045246;28;20209;-46
2022/05/22 10:32:00;;;;;;;2.30;0.90;;;16.90;99.90;;;;;;5052965;28;20195;-45
2022/05/22 10:34:37;;;;;;;3.10;0.77;;;17.10;99.90;;;;;;5053739;28;20274;-47
2022/05/22 10:37:11;;;;;;;2.53;0.83;;;17.30;99.90;;;;;;5036574;28;20224;-44
2022/05/22 10:39:38;;;;;;;4.10;0.83;;;17.30;99.90;;;;;;5044256;28;20247;-44
2022/05/22 10:44:59;;;;;;;3.17;1.20;;;17.40;99.90;;;;;;5041378;28;20225;-46
2022/05/22 10:47:28;;;;;;;4.17;1.00;;;17.40;99.90;;;;;;5045297;28;20234;-43
2022/05/22 10:49:57;;;;;;;1.63;0.70;;;17.50;99.90;;;;;;5054468;28;20195;-44
2022/05/22 10:52:26;;;;;;;1.23;0.60;;;17.60;99.90;;;;;;5035747;28;20656;-43
2022/05/22 10:54:56;;;;;;;2.10;0.90;;;17.60;99.90;;;;;;5048732;28;20199;-49
2022/05/22 10:57:26;;;;;;;3.57;1.00;;;17.50;99.90;;;;;;5050164;28;20567;-43
2022/05/22 10:59:54;;;;;;;2.10;0.43;;;17.50;99.90;;;;;;5050371;28;20207;-48
2022/05/22 11:02:24;;;;;;;2.47;1.10;;;17.50;99.90;;;;;;5057287;28;20598;-44
2022/05/22 11:04:54;;;;;;;3.30;0.80;;;17.60;97.00;;;;;;5045211;28;20211;-47
2022/05/22 11:07:30;;;;;;;1.13;0.87;;;17.60;98.30;;;;;;5047795;28;20771;-44
2022/05/22 11:10:05;;;;;;;3.57;1.00;;;17.70;99.20;;;;;;5042343;28;20211;-42
2022/05/22 11:12:32;;;;;;;4.83;1.20;;;17.60;99.90;;;;;;5054384;28;20207;-46
2022/05/22 11:15:08;;;;;;;3.67;0.70;;;17.60;99.90;;;;;;5042068;28;20686;-44
2022/05/22 11:17:35;;;;;;;2.43;0.90;;;17.60;99.90;;;;;;5043240;28;20229;-45
2022/05/22 11:20:10;;;;;;;3.07;0.90;;;17.70;99.90;;;;;;5057419;28;20202;-47
2022/05/22 11:22:58;;;;;;;2.37;0.87;;;17.80;99.90;;;;;;5048516;28;20210;-45
2022/05/22 11:25:34;;;;;;;2.73;0.70;;;17.90;97.50;;;;;;5047771;28;20750;-46
2022/05/22 11:28:24;;;;;;;1.60;0.90;;;17.80;96.30;;;;;;5055264;28;20306;-48
2022/05/22 11:30:56;;;;;;;4.27;1.10;;;17.70;97.20;;;;;;5047785;28;20883;-43
2022/05/22 11:33:39;;;;;;;3.80;0.80;;;17.70;98.20;;;;;;5052535;28;20199;-46
2022/05/22 11:36:15;;;;;;;2.20;1.03;;;17.70;97.60;;;;;;5054796;28;20278;-49
2022/05/22 11:38:51;;;;;;;1.20;0.77;;;17.70;98.20;;;;;;5041135;28;20214;-44
2022/05/22 11:41:23;;;;;;;6.00;0.90;;;17.70;98.60;;;;;;5045607;28;20206;-42
2022/05/22 11:44:36;;;;;;;2.43;0.90;;;17.40;98.80;;;;;;5057247;28;20183;-43
2022/05/22 11:47:21;;;;;;;2.23;0.83;;;17.20;98.10;;;;;;5045825;28;20567;-45
2022/05/22 11:50:00;;;;;;;2.93;0.77;;;17.20;98.70;;;;;;5047613;28;20191;-46
2022/05/22 11:52:56;;;;;;;2.50;0.80;;;17.20;98.20;;;;;;5055214;28;20198;-43
2022/05/22 11:55:35;;;;;;;1.87;0.90;;;17.40;97.30;;;;;;5037758;28;20209;-45
2022/05/22 11:58:18;;;;;;;1.53;0.70;;;17.60;96.80;;;;;;5053473;28;20214;-42
2022/05/22 12:00:52;;;;;;;3.10;0.97;;;17.60;96.20;;;;;;5045282;28;20460;-43
2022/05/22 12:03:54;;;;;;;2.23;0.73;;;17.80;95.70;;;;;;5054579;28;20213;-43
2022/05/22 12:06:44;;;;;;;3.57;0.70;;;18.00;95.00;;;;;;5055652;28;20221;-44
2022/05/22 12:09:28;;;;;;;2.33;0.60;;;18.30;93.80;;;;;;5044651;28;20207;-44
2022/05/22 12:12:04;;;;;;;5.67;1.10;;;18.30;93.80;;;;;;5039798;28;20203;-46
2022/05/22 12:14:40;;;;;;;2.70;0.90;;;18.20;94.50;;;;;;5050189;28;20198;-43
2022/05/22 12:17:13;;;;;;;3.07;1.00;;;18.00;95.70;;;;;;5050367;28;20645;-43
2022/05/22 12:19:46;;;;;;;4.10;0.73;;;17.90;95.60;;;;;;5048271;28;20210;-43
2022/05/22 12:22:18;;;;;;;6.70;0.80;;;17.80;96.60;;;;;;5050213;28;20199;-44
2022/05/22 12:24:52;;;;;;;1.43;0.80;;;17.70;96.50;;;;;;5059173;28;20210;-43
2022/05/22 12:27:23;;;;;;;2.27;0.80;;;17.80;96.00;;;;;;5042166;28;20226;-44
2022/05/22 12:30:02;;;;;;;3.47;0.70;;;18.00;95.90;;;;;;5051843;28;20222;-44
2022/05/22 12:32:31;;;;;;;2.50;0.70;;;18.20;94.00;;;;;;5058237;28;20190;-43
2022/05/22 12:35:01;;;;;;;2.40;0.60;;;18.40;94.50;;;;;;5040538;28;20211;-43
2022/05/22 12:37:33;;;;;;;1.47;0.70;;;18.60;94.60;;;;;;5049337;28;20238;-43
2022/05/22 12:40:11;;;;;;;4.10;1.63;;;18.60;93.10;;;;;;5053186;28;20586;-43
2022/05/22 12:42:44;;;;;;;2.33;1.00;;;18.50;93.80;;;;;;5046506;28;20694;-43
2022/05/22 12:45:11;;;;;;;2.20;0.40;;;18.60;94.50;;;;;;5050005;28;20234;-44
2022/05/22 12:47:43;;;;;;;2.27;0.60;;;18.70;93.80;;;;;;5047537;28;20226;-43
2022/05/22 12:50:11;;;;;;;3.20;2.30;;;18.80;94.10;;;;;;5038748;28;20707;-45
2022/05/22 12:52:40;;;;;;;6.23;4.30;;;18.80;93.50;;;;;;5052778;28;20616;-47
2022/05/22 12:55:22;;;;;;;3.30;1.70;;;18.70;92.80;;;;;;5047229;28;20183;-44
2022/05/22 12:57:54;;;;;;;2.13;1.20;;;18.70;91.50;;;;;;5039802;28;20296;-45
2022/05/22 13:00:34;;;;;;;2.17;0.50;;;18.60;92.30;;;;;;5064277;28;20199;-46
2022/05/22 13:03:09;;;;;;;2.87;0.70;;;18.60;92.00;;;;;;5043099;28;20195;-44
2022/05/22 13:05:36;;;;;;;2.30;0.83;;;18.40;90.80;;;;;;5047309;28;20226;-43
2022/05/22 13:08:15;;;;;;;0.90;0.80;;;18.30;91.30;;;;;;5049210;28;20215;-45
2022/05/22 13:10:47;;;;;;;0.90;0.63;;;18.20;91.50;;;;;;5055232;28;20215;-44
2022/05/22 13:13:25;;;;;;;2.77;0.70;;;18.20;91.80;;;;;;5043866;28;20211;-43
2022/05/22 13:15:58;;;;;;;1.33;0.50;;;18.40;91.60;;;;;;5050532;28;20630;-45
2022/05/22 13:18:25;;;;;;;2.70;0.60;;;18.80;91.80;;;;;;5044474;28;20226;-43
2022/05/22 13:20:55;;;;;;;4.57;0.67;;;19.40;91.30;;;;;;5042930;28;20211;-44
2022/05/22 13:23:34;;;;;;;2.00;0.60;;;19.70;90.20;;;;;;5049999;28;20249;-44
2022/05/22 13:26:05;;;;;;;2.47;0.60;;;19.90;87.50;;;;;;5049611;28;20218;-44
2022/05/22 13:28:36;;;;;;;2.73;0.60;;;19.90;88.30;;;;;;5035266;28;20214;-47
2022/05/22 13:31:16;;;;;;;1.70;1.30;;;19.90;89.10;;;;;;5046958;28;20195;-44
2022/05/22 13:33:48;;;;;;;2.80;0.67;;;20.00;89.40;;;;;;5044972;28;20203;-47
2022/05/22 13:36:21;;;;;;;3.87;0.60;;;20.20;86.80;;;;;;5048939;28;20210;-44
2022/05/22 13:38:53;;;;;;;3.23;0.53;;;20.80;88.10;;;;;;5056382;28;20202;-43
2022/05/22 13:41:51;;;;;;;8.37;0.90;;;21.50;89.10;;;;;;5045564;28;20204;-43
2022/05/22 13:44:57;;;;;;;1.15;0.63;;;22.20;83.50;;;;;;5038744;28;20207;-47
2022/05/22 13:47:55;;;;;;;0.82;0.40;;;22.60;82.70;;;;;;5048979;28;20951;-43
2022/05/22 13:53:25;;;;;;;3.83;0.70;;;23.20;76.90;;;;;;5042444;28;20605;-43